Time;durP1;ratioP1;P1;durP2;ratioP2;P2;SDS_P1;SDS_P2;PMS_P1;PMS_P2;Temp;Humidity;BMP_temperature;BMP_pressure;BME280_temperature;BME280_humidity;BME280_pressure;Samples;Min_cycle;Max_cycle;Signal;HPM_P1;HPM_P2
2021/08/26 00:00:29;;;;;;;11.15;8.32;;;18.20;99.90;;;;;;4101005;28;20077;-70
2021/08/26 00:07:08;;;;;;;9.10;6.43;;;18.20;99.90;;;;;;4101870;28;20038;-70
2021/08/26 00:09:09;;;;;;;10.10;7.00;;;18.20;99.90;;;;;;4097922;28;20045;-70
2021/08/26 00:11:11;;;;;;;9.32;6.32;;;18.20;99.90;;;;;;4106162;28;20043;-70
2021/08/26 00:13:11;;;;;;;8.30;6.30;;;18.10;99.90;;;;;;4102431;28;20046;-70
2021/08/26 00:15:12;;;;;;;9.85;6.40;;;18.10;99.90;;;;;;4103702;28;20049;-70
2021/08/26 00:17:14;;;;;;;9.07;6.65;;;18.10;99.90;;;;;;4104380;28;20153;-70
2021/08/26 00:19:15;;;;;;;10.35;6.63;;;18.10;99.90;;;;;;4104580;28;20031;-70
2021/08/26 00:21:16;;;;;;;8.43;6.50;;;18.10;99.90;;;;;;4102105;28;20039;-70
2021/08/26 00:23:16;;;;;;;7.25;6.18;;;18.10;99.90;;;;;;4105519;28;20038;-70
2021/08/26 00:25:17;;;;;;;9.90;6.47;;;18.10;99.90;;;;;;4101816;28;20105;-70
2021/08/26 00:27:17;;;;;;;7.53;5.80;;;18.10;99.90;;;;;;4101365;28;20530;-70
2021/08/26 00:29:18;;;;;;;7.00;5.47;;;18.20;99.90;;;;;;4103926;28;20058;-70
2021/08/26 00:31:18;;;;;;;7.72;5.10;;;18.20;99.90;;;;;;4102869;28;20038;-70
2021/08/26 00:33:19;;;;;;;7.55;4.63;;;18.20;99.90;;;;;;4104424;28;20167;-70
2021/08/26 00:35:20;;;;;;;6.38;4.57;;;18.20;99.90;;;;;;4103652;28;20056;-70
2021/08/26 00:37:20;;;;;;;6.10;4.88;;;18.20;99.90;;;;;;4106151;28;20031;-70
2021/08/26 00:39:21;;;;;;;5.57;4.30;;;18.20;99.90;;;;;;4098905;28;20130;-69
2021/08/26 00:41:22;;;;;;;5.82;4.07;;;18.20;99.90;;;;;;4106378;28;20039;-70
2021/08/26 00:43:23;;;;;;;6.57;4.53;;;18.20;99.90;;;;;;4097875;28;20047;-70
2021/08/26 00:45:23;;;;;;;6.03;4.85;;;18.20;99.90;;;;;;4106032;28;20712;-69
2021/08/26 00:47:27;;;;;;;5.10;4.43;;;18.10;99.90;;;;;;4130386;28;20038;-69
2021/08/26 00:49:30;;;;;;;6.07;4.55;;;18.00;99.90;;;;;;4106598;28;20058;-69
2021/08/26 00:51:31;;;;;;;;;;;18.00;99.90;;;;;;4104640;28;20050;-69
2021/08/26 00:53:32;;;;;;;5.63;4.32;;;17.90;99.90;;;;;;4103582;28;19922;-69
2021/08/26 00:55:32;;;;;;;4.13;3.72;;;17.90;99.90;;;;;;4103004;28;20035;-69
2021/08/26 00:57:36;;;;;;;5.00;4.13;;;17.80;99.90;;;;;;4100856;28;20093;-69
2021/08/26 00:59:37;;;;;;;4.53;3.67;;;17.70;99.90;;;;;;4101776;28;20035;-69
2021/08/26 01:01:48;;;;;;;3.97;3.58;;;17.70;99.90;;;;;;4098814;28;20038;-69
2021/08/26 01:03:56;;;;;;;4.05;3.58;;;17.70;99.90;;;;;;4099648;28;20030;-69
2021/08/26 01:06:01;;;;;;;4.00;3.15;;;17.60;99.90;;;;;;4104379;28;20042;-69
2021/08/26 01:08:07;;;;;;;7.38;4.32;;;17.60;99.90;;;;;;4102180;28;20419;-69
2021/08/26 01:10:12;;;;;;;5.40;3.75;;;17.60;99.90;;;;;;4101403;28;20042;-69
2021/08/26 01:12:21;;;;;;;2.97;2.28;;;17.50;99.90;;;;;;4105884;28;20122;-69
2021/08/26 01:14:22;;;;;;;6.78;2.30;;;17.30;99.90;;;;;;4100561;28;20034;-70
2021/08/26 01:16:23;;;;;;;4.07;2.08;;;17.30;99.90;;;;;;4104384;28;20442;-69
2021/08/26 01:18:23;;;;;;;5.88;2.30;;;17.20;99.90;;;;;;4142982;28;20038;-69
2021/08/26 01:20:24;;;;;;;4.18;2.10;;;17.20;99.90;;;;;;4103782;28;20043;-69
2021/08/26 01:22:27;;;;;;;4.07;1.92;;;17.20;99.90;;;;;;4110869;28;20097;-69
2021/08/26 01:24:28;;;;;;;4.53;2.08;;;17.20;99.90;;;;;;4105014;28;20042;-69
2021/08/26 01:26:35;;;;;;;3.72;2.03;;;17.20;99.90;;;;;;4094104;28;20043;-69
2021/08/26 01:28:38;;;;;;;7.18;2.05;;;17.20;99.90;;;;;;4103196;28;20876;-69
2021/08/26 01:30:42;;;;;;;3.45;2.00;;;17.20;99.90;;;;;;4102349;28;20764;-69
2021/08/26 01:32:44;;;;;;;5.38;2.28;;;17.20;99.90;;;;;;4108820;28;20038;-69
2021/08/26 01:34:44;;;;;;;3.53;1.92;;;17.20;99.90;;;;;;4109652;28;20483;-69
2021/08/26 01:36:46;;;;;;;7.03;2.47;;;17.20;99.90;;;;;;4109199;28;20106;-69
2021/08/26 01:38:47;;;;;;;1.98;1.58;;;17.20;99.90;;;;;;4128439;28;20065;-69
2021/08/26 01:40:49;;;;;;;5.68;2.22;;;17.20;99.90;;;;;;4109405;28;20031;-69
2021/08/26 01:42:50;;;;;;;4.30;1.80;;;17.20;99.90;;;;;;4106030;28;20043;-69
2021/08/26 01:44:51;;;;;;;6.53;2.03;;;17.20;99.90;;;;;;4101497;28;20054;-69
2021/08/26 01:47:16;;;;;;;5.72;1.77;;;17.20;99.90;;;;;;4103906;28;20093;-69
2021/08/26 01:49:16;;;;;;;4.50;2.22;;;17.20;99.90;;;;;;4107931;28;20520;-69
2021/08/26 01:51:17;;;;;;;8.82;2.25;;;17.20;99.90;;;;;;4108783;28;20130;-69
2021/08/26 01:53:18;;;;;;;3.85;1.83;;;17.20;99.90;;;;;;4105324;28;20045;-69
2021/08/26 01:55:18;;;;;;;3.50;1.65;;;17.20;99.90;;;;;;4105909;28;20699;-69
2021/08/26 01:57:23;;;;;;;3.70;1.83;;;17.30;99.90;;;;;;4105816;28;20518;-69
2021/08/26 01:59:24;;;;;;;2.88;1.75;;;17.30;99.90;;;;;;4108129;28;20051;-70
2021/08/26 02:01:25;;;;;;;4.55;1.65;;;17.30;99.90;;;;;;4107661;28;21031;-69
2021/08/26 02:03:25;;;;;;;3.58;1.95;;;17.30;99.90;;;;;;4108400;28;20167;-69
2021/08/26 02:05:26;;;;;;;5.18;2.00;;;17.30;99.90;;;;;;4099727;28;20505;-69
2021/08/26 02:07:26;;;;;;;3.17;1.90;;;17.30;99.90;;;;;;4107551;28;20161;-69
2021/08/26 02:09:27;;;;;;;4.53;1.88;;;17.30;99.90;;;;;;4104453;28;20483;-69
2021/08/26 02:11:28;;;;;;;3.55;1.95;;;17.30;99.90;;;;;;4109697;28;20039;-69
2021/08/26 02:13:29;;;;;;;3.35;1.60;;;17.30;99.90;;;;;;4109363;28;20057;-70
2021/08/26 02:15:29;;;;;;;5.75;1.98;;;17.30;99.90;;;;;;4107783;28;20054;-69
2021/08/26 02:17:30;;;;;;;3.70;1.42;;;17.30;99.90;;;;;;4106841;28;20047;-70
2021/08/26 02:19:30;;;;;;;3.97;1.70;;;17.30;99.90;;;;;;4101680;28;20082;-70
2021/08/26 02:21:31;;;;;;;3.85;1.63;;;17.20;99.90;;;;;;4135681;28;20042;-70
2021/08/26 02:23:32;;;;;;;2.47;1.63;;;17.20;99.90;;;;;;4104222;28;20045;-69
2021/08/26 02:25:32;;;;;;;3.20;1.58;;;17.30;99.90;;;;;;4105587;28;20046;-70
2021/08/26 02:27:33;;;;;;;3.67;2.22;;;17.30;99.90;;;;;;4105230;28;20105;-70
2021/08/26 02:29:34;;;;;;;3.40;1.75;;;17.30;99.90;;;;;;4105064;28;20387;-69
2021/08/26 02:31:35;;;;;;;4.15;1.80;;;17.20;99.90;;;;;;4109254;28;20031;-69
2021/08/26 02:33:35;;;;;;;4.80;1.80;;;17.30;99.90;;;;;;4105239;28;20046;-70
2021/08/26 02:35:36;;;;;;;2.55;1.50;;;17.30;99.90;;;;;;4104547;28;20093;-69
2021/08/26 02:37:36;;;;;;;4.72;1.77;;;17.30;99.90;;;;;;4106796;28;20046;-70
2021/08/26 02:39:37;;;;;;;6.07;2.00;;;17.30;99.90;;;;;;4082844;28;20036;-70
2021/08/26 02:41:38;;;;;;;4.40;2.10;;;17.30;99.90;;;;;;4103086;28;20031;-70
2021/08/26 02:43:38;;;;;;;2.78;1.60;;;17.30;99.90;;;;;;4096209;28;20058;-70
2021/08/26 02:45:39;;;;;;;4.10;1.95;;;17.40;99.90;;;;;;4094726;28;20487;-69
2021/08/26 02:47:40;;;;;;;4.80;2.08;;;17.40;99.90;;;;;;4103734;28;20058;-70
2021/08/26 02:49:40;;;;;;;5.15;2.47;;;17.30;99.90;;;;;;4119266;28;20113;-70
2021/08/26 02:51:41;;;;;;;4.68;1.80;;;17.30;99.90;;;;;;4108949;28;20043;-69
2021/08/26 02:53:41;;;;;;;2.42;1.67;;;17.30;99.90;;;;;;4097423;28;20054;-69
2021/08/26 02:55:42;;;;;;;4.10;2.28;;;17.30;99.90;;;;;;4090841;28;20047;-70
2021/08/26 02:57:43;;;;;;;4.00;1.50;;;17.40;99.90;;;;;;4087786;28;20075;-70
2021/08/26 02:59:44;;;;;;;4.00;1.80;;;17.30;99.90;;;;;;4104468;28;20038;-69
2021/08/26 03:01:44;;;;;;;2.90;1.90;;;17.30;99.90;;;;;;4100259;28;20107;-69
2021/08/26 03:03:45;;;;;;;8.07;2.42;;;17.20;99.90;;;;;;4091270;29;20090;-69
2021/08/26 03:05:45;;;;;;;6.00;2.35;;;17.20;99.90;;;;;;4092898;28;20036;-70
2021/08/26 03:07:46;;;;;;;8.20;2.53;;;17.20;99.90;;;;;;4081756;28;20039;-69
2021/08/26 03:09:47;;;;;;;5.35;2.35;;;17.10;99.90;;;;;;4098974;28;20031;-70
2021/08/26 03:11:47;;;;;;;3.65;1.90;;;17.10;99.90;;;;;;4091118;28;20027;-70
2021/08/26 03:13:48;;;;;;;4.85;2.30;;;17.10;99.90;;;;;;4099735;28;20114;-70
2021/08/26 03:15:49;;;;;;;4.63;1.98;;;17.10;99.90;;;;;;4101750;28;20032;-70
2021/08/26 03:17:50;;;;;;;4.57;2.10;;;17.20;99.90;;;;;;4097548;28;20039;-70
2021/08/26 03:19:51;;;;;;;4.85;2.40;;;17.20;99.90;;;;;;4090282;28;20115;-70
2021/08/26 03:21:51;;;;;;;5.15;2.20;;;17.10;99.90;;;;;;4099152;28;20701;-70
2021/08/26 03:23:52;;;;;;;5.18;2.00;;;17.20;99.90;;;;;;4103002;28;20147;-70
2021/08/26 03:25:53;;;;;;;6.97;2.50;;;17.10;99.90;;;;;;4106672;28;20491;-69
2021/08/26 03:27:54;;;;;;;5.00;1.95;;;17.10;99.90;;;;;;4108092;28;20110;-70
2021/08/26 03:29:55;;;;;;;3.65;2.17;;;17.20;99.90;;;;;;4104664;28;20360;-70
2021/08/26 03:31:55;;;;;;;6.80;2.40;;;17.20;99.90;;;;;;4100028;28;20182;-69
2021/08/26 03:33:56;;;;;;;5.95;2.25;;;17.20;99.90;;;;;;4088325;28;20032;-70
2021/08/26 03:35:57;;;;;;;9.43;2.53;;;17.20;99.90;;;;;;4103346;28;20046;-70
2021/08/26 03:37:57;;;;;;;8.20;2.92;;;17.10;99.90;;;;;;4090935;28;20037;-70
2021/08/26 03:39:58;;;;;;;8.88;2.75;;;17.10;99.90;;;;;;4075122;28;20847;-69
2021/08/26 03:41:58;;;;;;;6.47;2.65;;;17.10;99.90;;;;;;4097401;28;20768;-70
2021/08/26 03:43:59;;;;;;;6.43;2.38;;;17.10;99.90;;;;;;4078298;29;20127;-70
2021/08/26 03:46:00;;;;;;;5.50;2.28;;;17.00;99.90;;;;;;4108278;28;20755;-70
2021/08/26 03:48:00;;;;;;;5.93;2.25;;;17.10;99.90;;;;;;4106667;28;20105;-70
2021/08/26 03:50:01;;;;;;;5.55;2.40;;;17.10;99.90;;;;;;4099569;28;20062;-70
2021/08/26 03:52:02;;;;;;;6.13;2.17;;;17.10;99.90;;;;;;4107827;28;20035;-69
2021/08/26 03:54:03;;;;;;;4.57;2.40;;;17.10;99.90;;;;;;4106608;28;20133;-69
2021/08/26 03:56:06;;;;;;;12.80;3.25;;;17.10;99.90;;;;;;4086660;28;20047;-70
2021/08/26 03:58:06;;;;;;;5.50;2.55;;;17.10;99.90;;;;;;4105879;28;20467;-69
2021/08/26 04:00:08;;;;;;;7.60;2.80;;;17.10;99.90;;;;;;4106462;28;20035;-70
2021/08/26 04:02:08;;;;;;;6.85;2.70;;;17.10;99.90;;;;;;4107076;28;20030;-69
2021/08/26 04:04:09;;;;;;;7.97;2.63;;;17.10;99.90;;;;;;4101130;28;20069;-70
2021/08/26 04:06:10;;;;;;;8.75;2.80;;;17.10;99.90;;;;;;4105366;28;20050;-69
2021/08/26 04:08:10;;;;;;;6.93;2.83;;;17.00;99.90;;;;;;4106654;28;20038;-69
2021/08/26 04:10:11;;;;;;;10.48;3.10;;;17.10;99.90;;;;;;4096310;28;20050;-69
2021/08/26 04:12:12;;;;;;;13.00;3.15;;;17.10;99.90;;;;;;4083712;29;20134;-69
2021/08/26 04:14:13;;;;;;;8.55;3.17;;;17.00;99.90;;;;;;4083106;28;20434;-70
2021/08/26 04:16:14;;;;;;;9.63;3.03;;;17.00;99.90;;;;;;4092392;28;20062;-69
2021/08/26 04:18:15;;;;;;;9.68;3.15;;;17.00;99.90;;;;;;4076345;28;20585;-69
2021/08/26 04:20:16;;;;;;;7.50;2.78;;;17.00;99.90;;;;;;4086015;28;20047;-69
2021/08/26 04:22:17;;;;;;;7.55;2.97;;;16.90;99.90;;;;;;4081566;28;20051;-69
2021/08/26 04:24:17;;;;;;;12.20;3.30;;;16.90;99.90;;;;;;4097456;28;20051;-69
2021/08/26 04:26:18;;;;;;;7.65;3.00;;;16.90;99.90;;;;;;4095711;28;20039;-69
2021/08/26 04:28:19;;;;;;;8.57;3.08;;;16.90;99.90;;;;;;4096684;28;20042;-70
2021/08/26 04:30:19;;;;;;;5.20;2.50;;;16.90;99.90;;;;;;4094975;28;21093;-69
2021/08/26 04:32:20;;;;;;;15.13;3.67;;;16.90;99.90;;;;;;4094007;28;20113;-69
2021/08/26 04:34:20;;;;;;;12.38;3.65;;;16.90;99.90;;;;;;4098308;28;20158;-69
2021/08/26 04:36:21;;;;;;;9.23;2.95;;;16.90;99.90;;;;;;4097337;28;20177;-69
2021/08/26 04:38:21;;;;;;;12.07;2.67;;;16.90;99.90;;;;;;4102219;28;20047;-69
2021/08/26 04:40:22;;;;;;;7.78;2.53;;;16.90;99.90;;;;;;4100728;28;20420;-69
2021/08/26 04:42:23;;;;;;;11.93;3.10;;;16.90;99.90;;;;;;4100237;28;20043;-69
2021/08/26 04:44:23;;;;;;;6.65;2.60;;;16.90;99.90;;;;;;4082182;28;20849;-69
2021/08/26 04:46:24;;;;;;;5.72;2.55;;;16.90;99.90;;;;;;4099722;28;20058;-69
2021/08/26 04:48:24;;;;;;;11.93;2.83;;;16.90;99.90;;;;;;4099341;28;20050;-69
2021/08/26 04:50:25;;;;;;;7.72;2.90;;;16.90;99.90;;;;;;4100320;28;20055;-69
2021/08/26 04:52:26;;;;;;;10.10;2.63;;;16.90;99.90;;;;;;4098661;28;20053;-69
2021/08/26 04:54:26;;;;;;;6.13;2.53;;;16.90;99.90;;;;;;4082826;28;20043;-69
2021/08/26 04:56:27;;;;;;;8.95;2.80;;;16.90;99.90;;;;;;4078468;29;20078;-69
2021/08/26 04:58:27;;;;;;;13.55;3.45;;;16.90;99.90;;;;;;4097105;28;20426;-69
2021/08/26 05:00:28;;;;;;;10.25;3.35;;;16.90;99.90;;;;;;4089590;28;20114;-69
2021/08/26 05:02:28;;;;;;;9.18;2.78;;;16.90;99.90;;;;;;4100903;28;20063;-69
2021/08/26 05:04:29;;;;;;;8.57;2.97;;;16.90;99.90;;;;;;4097101;28;20047;-69
2021/08/26 05:06:33;;;;;;;6.55;2.30;;;16.90;99.90;;;;;;4098672;28;20127;-69
2021/08/26 05:08:34;;;;;;;9.45;2.67;;;16.90;99.90;;;;;;4091982;28;20046;-69
2021/08/26 05:10:38;;;;;;;12.27;2.65;;;16.90;99.90;;;;;;4081754;28;20134;-69
2021/08/26 05:12:39;;;;;;;11.50;3.25;;;16.90;99.90;;;;;;4080142;29;20047;-69
2021/08/26 05:14:39;;;;;;;7.38;2.65;;;16.90;99.90;;;;;;4096082;28;20559;-69
2021/08/26 05:16:40;;;;;;;7.10;2.17;;;16.90;99.90;;;;;;4080437;28;20126;-69
2021/08/26 05:18:41;;;;;;;8.98;3.13;;;16.90;99.90;;;;;;4081473;28;20725;-69
2021/08/26 05:20:41;;;;;;;11.75;3.42;;;16.90;99.90;;;;;;4097313;28;20399;-69
2021/08/26 05:22:42;;;;;;;8.27;3.20;;;16.90;99.90;;;;;;4096962;28;20042;-69
2021/08/26 05:24:43;;;;;;;7.85;2.83;;;16.90;99.90;;;;;;4080310;28;20119;-69
2021/08/26 05:26:44;;;;;;;7.50;2.70;;;16.90;99.90;;;;;;4099331;28;20491;-69
2021/08/26 05:28:46;;;;;;;8.50;2.80;;;16.90;99.90;;;;;;4094071;28;20153;-69
2021/08/26 05:30:47;;;;;;;11.82;3.47;;;16.90;99.90;;;;;;4094651;28;20451;-69
2021/08/26 05:32:48;;;;;;;7.88;2.55;;;16.90;99.90;;;;;;4094670;28;20043;-69
2021/08/26 05:34:49;;;;;;;8.90;2.53;;;16.90;99.90;;;;;;4099659;28;20054;-69
2021/08/26 05:36:50;;;;;;;7.88;2.67;;;16.90;99.90;;;;;;4099533;28;20043;-69
2021/08/26 05:38:50;;;;;;;6.25;2.58;;;17.00;99.90;;;;;;4100583;28;20451;-69
2021/08/26 05:40:51;;;;;;;9.93;3.15;;;17.00;99.90;;;;;;4095882;28;20070;-69
2021/08/26 05:42:51;;;;;;;6.05;2.33;;;17.00;99.90;;;;;;4077547;28;20035;-69
2021/08/26 05:44:52;;;;;;;10.77;2.45;;;17.00;99.90;;;;;;4077575;28;20040;-69
2021/08/26 05:46:53;;;;;;;9.90;2.83;;;17.10;99.90;;;;;;4097926;28;20047;-69
2021/08/26 05:48:54;;;;;;;10.40;3.40;;;17.10;99.90;;;;;;4094869;28;20043;-69
2021/08/26 05:50:54;;;;;;;9.93;3.13;;;17.00;99.90;;;;;;4098293;28;20106;-69
2021/08/26 05:52:55;;;;;;;7.18;2.92;;;17.10;99.90;;;;;;4094544;28;20078;-69
2021/08/26 05:54:56;;;;;;;10.88;3.40;;;17.10;99.90;;;;;;4096087;28;20058;-69
2021/08/26 05:56:59;;;;;;;9.60;3.30;;;17.00;99.90;;;;;;4099829;28;20139;-69
2021/08/26 05:58:59;;;;;;;11.98;3.10;;;17.00;99.90;;;;;;4090127;28;20042;-69
2021/08/26 06:01:00;;;;;;;12.55;3.00;;;17.00;99.90;;;;;;4098125;28;20042;-69
2021/08/26 06:03:00;;;;;;;15.73;3.65;;;16.90;99.90;;;;;;4098057;28;20035;-69
2021/08/26 06:05:01;;;;;;;11.90;3.13;;;16.90;99.90;;;;;;4095355;28;20510;-69
2021/08/26 06:07:02;;;;;;;11.32;3.58;;;16.80;99.90;;;;;;4100211;28;20034;-69
2021/08/26 06:09:02;;;;;;;14.02;2.78;;;16.80;99.90;;;;;;4100409;28;20035;-69
2021/08/26 06:11:03;;;;;;;13.02;3.65;;;16.80;99.90;;;;;;4100653;28;20047;-69
2021/08/26 06:13:04;;;;;;;11.13;3.40;;;16.70;99.90;;;;;;4100316;28;20093;-69
2021/08/26 06:15:05;;;;;;;11.38;3.83;;;16.70;99.90;;;;;;4099804;28;20054;-69
2021/08/26 06:17:06;;;;;;;11.07;3.13;;;16.70;99.90;;;;;;4099261;28;20047;-69
2021/08/26 06:19:06;;;;;;;11.77;3.22;;;16.70;99.90;;;;;;4129960;28;20034;-69
2021/08/26 06:21:10;;;;;;;10.20;3.08;;;16.80;99.90;;;;;;4102646;28;20747;-69
2021/08/26 06:23:10;;;;;;;12.00;2.90;;;16.80;99.90;;;;;;4102202;28;20062;-69
2021/08/26 06:25:12;;;;;;;9.68;3.17;;;16.80;99.90;;;;;;4102992;28;20043;-69
2021/08/26 06:27:13;;;;;;;13.45;3.30;;;16.90;99.90;;;;;;4100086;28;20039;-69
2021/08/26 06:29:13;;;;;;;14.88;3.72;;;16.90;99.90;;;;;;4098576;28;20441;-69
2021/08/26 06:31:14;;;;;;;21.27;3.63;;;17.00;99.90;;;;;;4099800;28;20039;-68
2021/08/26 06:33:15;;;;;;;8.60;3.28;;;16.90;99.90;;;;;;4100310;28;20067;-69
2021/08/26 06:35:15;;;;;;;10.02;3.10;;;16.90;99.90;;;;;;4102083;28;20027;-69
2021/08/26 06:37:16;;;;;;;13.20;3.53;;;16.90;99.90;;;;;;4073360;28;20055;-69
2021/08/26 06:39:16;;;;;;;12.30;3.45;;;17.00;99.90;;;;;;4101743;28;20133;-69
2021/08/26 06:41:17;;;;;;;9.40;3.38;;;17.00;99.90;;;;;;4102025;28;20046;-69
2021/08/26 06:43:18;;;;;;;12.13;3.42;;;17.00;99.90;;;;;;4132917;28;20523;-70
2021/08/26 06:45:18;;;;;;;12.45;3.92;;;17.00;99.90;;;;;;4101308;28;20194;-70
2021/08/26 06:47:19;;;;;;;15.48;3.92;;;17.00;99.90;;;;;;4090520;28;20047;-70
2021/08/26 06:49:20;;;;;;;15.27;3.45;;;17.00;99.90;;;;;;4099086;28;20047;-70
2021/08/26 06:51:21;;;;;;;14.68;4.30;;;17.00;99.90;;;;;;4101583;28;20042;-70
2021/08/26 06:53:21;;;;;;;9.25;3.92;;;17.10;99.90;;;;;;4098484;28;20047;-70
2021/08/26 06:55:22;;;;;;;9.25;3.08;;;17.00;99.90;;;;;;4100771;28;20392;-70
2021/08/26 06:57:27;;;;;;;11.90;3.63;;;17.10;99.90;;;;;;4098338;28;20039;-70
2021/08/26 06:59:28;;;;;;;9.88;3.17;;;17.10;99.90;;;;;;4096809;28;20047;-70
2021/08/26 07:01:28;;;;;;;11.15;3.20;;;17.20;99.90;;;;;;4102108;28;20693;-70
2021/08/26 07:03:29;;;;;;;7.45;3.20;;;17.20;99.90;;;;;;4099727;28;20652;-70
2021/08/26 07:05:30;;;;;;;11.55;3.13;;;17.20;99.90;;;;;;4101489;28;20047;-70
2021/08/26 07:07:31;;;;;;;11.70;3.28;;;17.30;99.90;;;;;;4076995;28;20491;-70
2021/08/26 07:09:31;;;;;;;12.13;3.58;;;17.30;99.90;;;;;;4114656;28;20048;-70
2021/08/26 07:11:32;;;;;;;14.70;3.67;;;17.30;99.90;;;;;;4101852;28;20039;-70
2021/08/26 07:13:33;;;;;;;10.63;3.25;;;17.30;99.90;;;;;;4099818;28;20047;-70
2021/08/26 07:15:33;;;;;;;11.02;3.20;;;17.30;99.90;;;;;;4104431;28;20541;-70
2021/08/26 07:17:34;;;;;;;15.27;3.55;;;17.40;99.90;;;;;;4100866;28;20391;-70
2021/08/26 07:19:35;;;;;;;14.48;3.35;;;17.30;99.90;;;;;;4102252;28;20035;-70
2021/08/26 07:21:35;;;;;;;9.40;3.15;;;17.30;99.90;;;;;;4100009;28;20479;-70
2021/08/26 07:23:36;;;;;;;11.75;3.25;;;17.20;99.90;;;;;;4101196;28;20098;-70
2021/08/26 07:25:37;;;;;;;13.25;3.53;;;17.30;99.90;;;;;;4094794;28;20112;-70
2021/08/26 07:27:37;;;;;;;10.73;3.17;;;17.20;99.90;;;;;;4098133;28;20235;-70
2021/08/26 07:29:38;;;;;;;9.63;2.97;;;17.30;99.90;;;;;;4098506;28;20058;-70
2021/08/26 07:31:39;;;;;;;8.55;3.00;;;17.30;99.90;;;;;;4127792;28;20034;-70
2021/08/26 07:33:40;;;;;;;13.52;3.10;;;17.40;99.90;;;;;;4101177;28;20667;-70
2021/08/26 07:35:40;;;;;;;10.50;2.78;;;17.40;99.90;;;;;;4099958;28;20533;-70
2021/08/26 07:37:41;;;;;;;14.27;3.78;;;17.40;99.90;;;;;;4098469;28;20391;-70
2021/08/26 07:39:41;;;;;;;14.63;3.30;;;17.40;99.90;;;;;;4097184;28;20580;-70
2021/08/26 07:41:42;;;;;;;15.98;3.42;;;17.40;99.90;;;;;;4098942;28;20062;-69
2021/08/26 07:43:42;;;;;;;12.10;2.85;;;17.40;99.90;;;;;;4103191;28;20043;-70
2021/08/26 07:45:43;;;;;;;10.07;3.45;;;17.40;99.90;;;;;;4130184;28;20038;-70
2021/08/26 07:47:44;;;;;;;12.23;3.88;;;17.40;99.90;;;;;;4097754;28;20035;-70
2021/08/26 07:49:44;;;;;;;7.60;2.50;;;17.40;99.90;;;;;;4101880;28;20073;-70
2021/08/26 07:51:45;;;;;;;8.20;2.90;;;17.40;99.90;;;;;;4097649;28;20038;-70
2021/08/26 07:53:45;;;;;;;10.40;2.97;;;17.40;99.90;;;;;;4097887;28;20039;-70
2021/08/26 07:55:46;;;;;;;11.45;3.22;;;17.50;99.90;;;;;;4100332;28;20043;-69
2021/08/26 07:57:47;;;;;;;11.07;3.72;;;17.40;99.90;;;;;;4101574;28;20757;-69
2021/08/26 07:59:47;;;;;;;12.27;3.47;;;17.40;99.90;;;;;;4101315;28;20576;-70
2021/08/26 08:01:49;;;;;;;11.73;3.63;;;17.40;99.90;;;;;;4097799;28;20038;-70
2021/08/26 08:03:49;;;;;;;9.05;2.78;;;17.40;99.90;;;;;;4101686;28;20470;-70
2021/08/26 08:05:50;;;;;;;14.05;3.85;;;17.40;99.90;;;;;;4094539;28;20122;-70
2021/08/26 08:07:50;;;;;;;11.65;2.42;;;17.40;99.90;;;;;;4105843;28;20128;-69
2021/08/26 08:09:52;;;;;;;13.90;3.10;;;17.30;99.90;;;;;;4114769;28;20027;-70
2021/08/26 08:11:53;;;;;;;9.73;2.90;;;17.30;99.90;;;;;;4100176;28;20901;-70
2021/08/26 08:13:53;;;;;;;13.68;3.38;;;17.40;99.90;;;;;;4069894;28;20059;-70
2021/08/26 08:15:54;;;;;;;9.98;2.70;;;17.30;99.90;;;;;;4098008;28;20058;-70
2021/08/26 08:17:54;;;;;;;9.77;2.45;;;17.30;99.90;;;;;;4097771;28;20126;-70
2021/08/26 08:19:55;;;;;;;9.07;2.90;;;17.40;99.90;;;;;;4101162;28;20054;-70
2021/08/26 08:21:56;;;;;;;11.30;2.60;;;17.40;99.90;;;;;;4098253;28;20035;-69
2021/08/26 08:23:56;;;;;;;7.55;2.30;;;17.40;99.90;;;;;;4097545;28;20045;-70
2021/08/26 08:25:57;;;;;;;11.07;2.75;;;17.40;99.90;;;;;;4096142;28;20051;-69
2021/08/26 08:27:58;;;;;;;11.07;2.97;;;17.50;99.90;;;;;;4097454;28;20050;-68
2021/08/26 08:29:59;;;;;;;11.68;2.53;;;17.40;99.90;;;;;;4102300;28;20035;-68
2021/08/26 08:31:59;;;;;;;11.07;2.85;;;17.40;99.90;;;;;;4096121;28;20038;-69
2021/08/26 08:34:00;;;;;;;14.15;3.22;;;17.30;99.90;;;;;;4098007;28;20043;-69
2021/08/26 08:36:01;;;;;;;11.13;2.53;;;17.30;99.90;;;;;;4099857;28;20049;-68
2021/08/26 08:38:02;;;;;;;12.27;2.80;;;17.30;99.90;;;;;;4098167;28;20071;-69
2021/08/26 08:40:03;;;;;;;8.38;2.45;;;17.20;99.90;;;;;;4099994;28;20031;-69
2021/08/26 08:42:03;;;;;;;15.32;3.58;;;17.10;99.90;;;;;;4100961;28;20046;-69
2021/08/26 08:44:04;;;;;;;8.40;2.88;;;17.00;99.90;;;;;;4098797;28;20655;-69
2021/08/26 08:46:05;;;;;;;9.75;2.80;;;17.00;99.90;;;;;;4098033;28;20388;-69
2021/08/26 08:48:08;;;;;;;8.93;2.53;;;17.00;99.90;;;;;;4098634;28;20514;-69
2021/08/26 08:50:09;;;;;;;9.50;2.67;;;17.00;99.90;;;;;;4113677;28;20065;-69
2021/08/26 08:52:10;;;;;;;13.65;2.05;;;17.00;99.90;;;;;;4099600;28;20490;-69
2021/08/26 08:54:10;;;;;;;11.18;2.80;;;17.00;99.90;;;;;;4096073;28;20047;-69
2021/08/26 08:56:11;;;;;;;9.40;2.85;;;17.10;99.90;;;;;;4101177;28;20533;-69
2021/08/26 08:58:13;;;;;;;8.77;2.47;;;17.00;99.90;;;;;;4130234;28;20041;-69
2021/08/26 09:00:17;;;;;;;8.63;2.78;;;17.10;99.90;;;;;;4096693;28;20027;-69
2021/08/26 09:02:17;;;;;;;10.98;2.65;;;17.10;99.90;;;;;;4097451;28;20046;-69
2021/08/26 09:04:18;;;;;;;11.73;2.88;;;17.20;99.90;;;;;;4129241;28;20049;-69
2021/08/26 09:06:19;;;;;;;13.57;3.72;;;17.30;99.90;;;;;;4113630;28;20065;-69
2021/08/26 09:08:22;;;;;;;7.03;2.35;;;17.40;99.90;;;;;;4106348;28;20050;-69
2021/08/26 09:10:35;;;;;;;8.63;3.13;;;17.50;99.90;;;;;;4100063;28;20041;-69
2021/08/26 09:12:42;;;;;;;13.07;2.92;;;17.70;99.90;;;;;;4096332;28;20066;-69
2021/08/26 09:14:42;;;;;;;8.80;3.00;;;17.80;99.90;;;;;;4096065;28;20194;-69
2021/08/26 09:16:49;;;;;;;9.73;3.00;;;17.90;99.90;;;;;;4096704;28;20074;-69
2021/08/26 09:18:50;;;;;;;9.10;3.08;;;18.00;99.90;;;;;;4096610;28;20042;-69
2021/08/26 09:21:17;;;;;;;8.82;2.88;;;18.00;99.90;;;;;;4096045;28;20046;-69
2021/08/26 09:23:18;;;;;;;11.38;3.38;;;18.10;99.90;;;;;;4093652;28;20122;-69
2021/08/26 09:25:25;;;;;;;9.17;3.23;;;18.20;99.90;;;;;;4097403;28;20611;-69
2021/08/26 09:27:32;;;;;;;7.72;2.22;;;18.20;99.90;;;;;;4094677;28;20039;-69
2021/08/26 09:29:53;;;;;;;19.55;3.20;;;18.30;99.90;;;;;;4097834;28;20038;-69
2021/08/26 09:31:56;;;;;;;5.15;2.35;;;18.30;99.90;;;;;;4093389;28;20045;-69
2021/08/26 09:34:01;;;;;;;7.30;2.80;;;18.30;99.90;;;;;;4095520;28;20071;-69
2021/08/26 09:36:01;;;;;;;10.50;2.97;;;18.10;99.90;;;;;;4093996;28;20598;-69
2021/08/26 09:38:04;;;;;;;7.78;2.50;;;18.00;99.90;;;;;;4098273;28;20055;-69
2021/08/26 09:40:06;;;;;;;8.93;2.72;;;17.90;99.90;;;;;;4099600;28;20038;-69
2021/08/26 09:42:07;;;;;;;9.73;3.22;;;17.80;99.90;;;;;;4128190;28;20969;-69
2021/08/26 09:44:10;;;;;;;7.97;2.97;;;17.70;99.90;;;;;;4098716;28;20039;-69
2021/08/26 09:46:29;;;;;;;14.60;3.42;;;17.70;99.90;;;;;;4098909;28;20509;-69
2021/08/26 09:48:29;;;;;;;11.20;3.08;;;17.60;99.90;;;;;;4099252;28;20053;-69
2021/08/26 09:50:38;;;;;;;9.25;3.00;;;17.60;99.90;;;;;;4101894;28;20047;-69
2021/08/26 09:52:51;;;;;;;9.45;2.97;;;17.60;99.90;;;;;;4102275;28;20058;-69
2021/08/26 09:54:54;;;;;;;7.10;2.33;;;17.60;99.90;;;;;;4103324;28;20039;-69
2021/08/26 09:56:55;;;;;;;4.43;1.90;;;17.70;99.90;;;;;;4103315;28;20142;-69
2021/08/26 09:58:56;;;;;;;5.95;2.13;;;17.70;99.90;;;;;;4102051;28;20035;-69
2021/08/26 10:01:11;;;;;;;6.60;2.22;;;17.80;99.90;;;;;;4098485;28;20047;-69
2021/08/26 10:03:13;;;;;;;4.38;2.20;;;17.80;99.90;;;;;;4101011;28;20093;-69
2021/08/26 10:05:15;;;;;;;;;;;17.80;99.90;;;;;;4103596;28;20038;-69
2021/08/26 10:07:17;;;;;;;6.70;2.00;;;17.90;99.90;;;;;;4097376;28;19973;-69
2021/08/26 10:09:18;;;;;;;6.05;2.25;;;17.90;99.90;;;;;;4098942;28;20047;-69
2021/08/26 10:11:20;;;;;;;7.32;2.63;;;18.00;99.90;;;;;;4101332;28;20153;-69
2021/08/26 10:13:20;;;;;;;6.93;2.23;;;18.10;99.90;;;;;;4100409;28;20046;-69
2021/08/26 10:15:21;;;;;;;5.22;2.15;;;18.10;99.90;;;;;;4098021;28;20064;-69
2021/08/26 10:17:21;;;;;;;5.93;2.33;;;18.10;99.90;;;;;;4099548;28;21275;-69
2021/08/26 10:19:23;;;;;;;4.72;2.25;;;18.20;99.90;;;;;;4128954;28;20124;-69
2021/08/26 10:21:24;;;;;;;16.98;3.45;;;18.20;99.90;;;;;;4100509;28;20051;-69
2021/08/26 10:23:26;;;;;;;6.82;2.50;;;18.20;99.90;;;;;;4102522;28;20683;-69
2021/08/26 10:25:27;;;;;;;7.45;2.38;;;18.30;99.90;;;;;;4099699;28;20497;-69
2021/08/26 10:27:30;;;;;;;9.75;2.83;;;18.30;99.90;;;;;;4100156;28;20122;-69
2021/08/26 10:29:34;;;;;;;10.05;2.28;;;18.30;99.90;;;;;;4103347;28;20153;-69
2021/08/26 10:31:36;;;;;;;5.28;2.17;;;18.30;99.90;;;;;;4097644;28;20416;-69
2021/08/26 10:33:37;;;;;;;9.35;2.40;;;18.30;99.90;;;;;;4100009;28;20044;-69